createdAt,value
2023-02-04T00:00:00.585Z,344.6
2023-02-04T00:05:00.472Z,344.6
2023-02-04T00:10:00.530Z,347.1
2023-02-04T00:15:00.471Z,347.1
2023-02-04T00:20:00.483Z,356.3
2023-02-04T00:25:00.532Z,356.3
2023-02-04T00:30:00.505Z,358.8
2023-02-04T00:35:00.489Z,358.8
2023-02-04T00:40:00.487Z,3.1
2023-02-04T00:45:00.496Z,3.1
2023-02-04T00:50:00.485Z,3.1
2023-02-04T00:55:00.531Z,3.1
2023-02-04T01:00:00.937Z,8.4
2023-02-04T01:05:00.583Z,8.4
2023-02-04T01:10:00.570Z,7.6
2023-02-04T01:15:00.516Z,7.6
2023-02-04T01:20:00.624Z,9.6
2023-02-04T01:25:00.500Z,9.6
2023-02-04T01:30:00.583Z,4.8
2023-02-04T01:35:00.504Z,4.8
2023-02-04T01:40:00.625Z,9.6
2023-02-04T01:45:00.670Z,9.6
2023-02-04T01:50:00.476Z,2.7
2023-02-04T01:55:00.498Z,2.7
2023-02-04T02:00:00.496Z,358.9
2023-02-04T02:05:00.592Z,358.9
2023-02-04T02:10:00.725Z,349.0
2023-02-04T02:15:00.493Z,349.0
2023-02-04T02:20:00.515Z,346.1
2023-02-04T02:25:00.513Z,346.1
2023-02-04T02:30:00.597Z,350.4
2023-02-04T02:35:00.566Z,350.4
2023-02-04T02:40:00.583Z,351.7
2023-02-04T02:45:00.539Z,351.7
2023-02-04T02:50:00.602Z,347.2
2023-02-04T02:55:00.652Z,347.2
2023-02-04T03:00:00.581Z,348.1
2023-02-04T03:05:00.581Z,348.1
2023-02-04T03:10:00.607Z,352.8
2023-02-04T03:15:00.582Z,352.8
2023-02-04T03:20:00.610Z,349.0
2023-02-04T03:25:00.631Z,349.0
2023-02-04T03:30:00.506Z,344.3
2023-02-04T03:35:00.509Z,344.3
2023-02-04T03:40:00.577Z,328.2
2023-02-04T03:45:00.549Z,328.2
2023-02-04T03:50:00.488Z,323.6
2023-02-04T03:55:00.612Z,323.6
2023-02-04T04:00:00.564Z,322.1
2023-02-04T04:05:00.502Z,322.1
2023-02-04T04:10:00.606Z,326.0
2023-02-04T04:15:00.492Z,326.0
2023-02-04T04:20:00.509Z,332.0
2023-02-04T04:25:00.549Z,332.0
2023-02-04T04:30:00.589Z,326.0
2023-02-04T04:35:00.577Z,326.0
2023-02-04T04:40:00.519Z,329.9
2023-02-04T04:45:00.512Z,329.9
2023-02-04T04:50:00.591Z,337.5
2023-02-04T04:55:00.490Z,337.5
2023-02-04T05:00:00.674Z,344.3
2023-02-04T05:05:00.808Z,344.3
2023-02-04T05:10:00.545Z,338.4
2023-02-04T05:15:00.594Z,338.4
2023-02-04T05:20:00.640Z,336.4
2023-02-04T05:25:00.558Z,336.4
2023-02-04T05:30:00.689Z,336.7
2023-02-04T05:35:00.481Z,336.7
2023-02-04T05:40:00.539Z,342.3
2023-02-04T05:45:00.588Z,342.3
2023-02-04T05:50:00.665Z,345.5
2023-02-04T05:55:00.488Z,345.5
2023-02-04T06:00:00.523Z,342.5
2023-02-04T06:05:00.483Z,342.5
2023-02-04T06:10:00.959Z,342.5
2023-02-04T06:15:00.494Z,342.5
2023-02-04T06:20:00.580Z,334.5
2023-02-04T06:25:00.558Z,334.5
2023-02-04T06:30:00.564Z,310.9
2023-02-04T06:35:00.496Z,310.9
2023-02-04T06:40:00.567Z,285.7
2023-02-04T06:45:00.493Z,329.0
2023-02-04T06:50:00.548Z,249.2
2023-02-04T06:55:00.480Z,247.5
2023-02-04T07:00:00.548Z,225.6
2023-02-04T07:05:00.527Z,213.0
2023-02-04T07:10:00.496Z,224.9
2023-02-04T07:15:00.506Z,228.1
2023-02-04T07:20:00.535Z,225.1
2023-02-04T07:25:00.492Z,239.4
2023-02-04T07:30:00.499Z,249.2
2023-02-04T07:35:00.864Z,265.2
2023-02-04T07:40:00.497Z,313.0
2023-02-04T07:45:00.573Z,306.9
2023-02-04T07:50:00.632Z,302.5
2023-02-04T07:55:00.497Z,315.5
2023-02-04T08:00:00.587Z,335.8
2023-02-04T08:05:00.486Z,351.3
2023-02-04T08:10:00.502Z,308.6
2023-02-04T08:15:00.464Z,347.9
2023-02-04T08:20:00.510Z,334.9
2023-02-04T08:25:00.482Z,336.6
2023-02-04T08:30:00.555Z,324.1
2023-02-04T08:35:00.565Z,314.0
2023-02-04T08:40:00.640Z,350.8
2023-02-04T08:45:00.472Z,333.3
2023-02-04T08:50:00.618Z,325.1
2023-02-04T08:55:00.519Z,327.2
2023-02-04T09:00:00.672Z,342.9
2023-02-04T09:05:00.621Z,321.1
2023-02-04T09:10:00.560Z,356.0
2023-02-04T09:15:00.520Z,349.5
2023-02-04T09:20:00.651Z,349.5
2023-02-04T09:25:00.590Z,345.5
2023-02-04T09:30:00.657Z,25.9
2023-02-04T09:35:00.563Z,3.4
2023-02-04T09:40:00.477Z,3.5
2023-02-04T09:45:00.570Z,351.2
2023-02-04T09:50:00.623Z,25.5
2023-02-04T09:55:00.487Z,10.8
2023-02-04T10:00:00.579Z,357.8
2023-02-04T10:05:00.587Z,345.8
2023-02-04T10:10:00.507Z,24.8
2023-02-04T10:15:00.655Z,20.6
2023-02-04T10:20:00.527Z,12.8
2023-02-04T10:25:00.506Z,346.8
2023-02-04T10:30:00.646Z,6.5
2023-02-04T10:35:00.603Z,0.4
2023-02-04T10:40:00.712Z,12.7
2023-02-04T10:45:00.565Z,18.7
2023-02-04T10:50:00.665Z,35.2
2023-02-04T10:55:00.571Z,28.2
2023-02-04T11:00:00.573Z,7.4
2023-02-04T11:05:00.520Z,11.2
2023-02-04T11:10:00.673Z,22.3
2023-02-04T11:15:00.563Z,38.7
2023-02-04T11:20:00.607Z,19.9
2023-02-04T11:25:00.591Z,352.4
2023-02-04T11:30:00.570Z,346.7
2023-02-04T11:35:00.573Z,356.4
2023-02-04T11:40:00.576Z,1.8
2023-02-04T11:45:00.517Z,357.7
2023-02-04T11:50:00.558Z,0.2
2023-02-04T11:55:00.541Z,352.1
2023-02-04T12:00:00.690Z,2.7
2023-02-04T12:05:00.577Z,9.5
2023-02-04T12:10:00.564Z,3.8
2023-02-04T12:15:00.668Z,9.7
2023-02-04T12:20:00.624Z,331.9
2023-02-04T12:25:00.569Z,7.2
2023-02-04T12:30:00.630Z,357.7
2023-02-04T12:35:00.647Z,13.6
2023-02-04T12:40:00.654Z,323.8
2023-02-04T12:45:00.701Z,334.1
2023-02-04T12:50:00.597Z,318.9
2023-02-04T12:55:00.543Z,348.0
2023-02-04T13:00:00.672Z,326.8
2023-02-04T13:05:00.692Z,357.6
2023-02-04T13:10:00.533Z,8.5
2023-02-04T13:15:00.654Z,8.0
2023-02-04T13:20:00.759Z,15.2
2023-02-04T13:25:04.411Z,13.3
2023-02-04T13:30:00.589Z,3.0
2023-02-04T13:35:00.606Z,352.1
2023-02-04T13:40:00.541Z,14.5
2023-02-04T13:45:00.519Z,336.2
2023-02-04T13:50:00.609Z,354.9
2023-02-04T13:55:00.549Z,330.5
2023-02-04T14:00:00.550Z,332.7
2023-02-04T14:05:00.510Z,308.3
2023-02-04T14:10:00.484Z,323.1
2023-02-04T14:15:00.500Z,333.1
2023-02-04T14:20:00.537Z,331.2
2023-02-04T14:25:00.618Z,330.6
2023-02-04T14:30:00.606Z,339.0
2023-02-04T14:35:00.592Z,318.1
2023-02-04T14:40:00.540Z,312.2
2023-02-04T14:45:00.540Z,302.5
2023-02-04T14:50:00.492Z,284.3
2023-02-04T14:55:00.500Z,344.3
2023-02-04T15:00:00.547Z,32.2
2023-02-04T15:05:00.498Z,2.5
2023-02-04T15:10:00.547Z,5.3
2023-02-04T15:15:00.487Z,10.1
2023-02-04T15:20:00.586Z,2.0
2023-02-04T15:25:00.629Z,6.8
2023-02-04T15:30:00.622Z,16.9
2023-02-04T15:35:00.546Z,6.8
2023-02-04T15:40:00.588Z,6.1
2023-02-04T15:45:00.494Z,5.4
2023-02-04T15:50:00.620Z,358.4
2023-02-04T15:55:00.556Z,345.6
2023-02-04T16:00:00.650Z,344.3
2023-02-04T16:05:00.633Z,349.9
2023-02-04T16:10:00.548Z,13.0
2023-02-04T16:15:00.610Z,16.3
2023-02-04T16:20:00.518Z,5.6
2023-02-04T16:25:00.517Z,21.5
2023-02-04T16:30:00.496Z,21.2
2023-02-04T16:35:00.543Z,18.6
2023-02-04T16:40:00.565Z,20.0
2023-02-04T16:45:00.627Z,4.8
2023-02-04T16:50:00.482Z,349.0
2023-02-04T16:55:00.618Z,337.6
2023-02-04T17:00:00.528Z,346.4
2023-02-04T17:05:00.483Z,360.0
2023-02-04T17:10:00.676Z,349.2
2023-02-04T17:15:00.503Z,359.3
2023-02-04T17:20:01.116Z,350.9
2023-02-04T17:25:00.653Z,0.5
2023-02-04T17:30:01.141Z,13.7
2023-02-04T17:35:00.498Z,8.8
2023-02-04T17:40:00.551Z,16.9
2023-02-04T17:45:00.507Z,10.6
2023-02-04T17:50:01.042Z,18.0
2023-02-04T17:55:00.568Z,37.3
2023-02-04T18:00:00.746Z,43.4
2023-02-04T18:05:00.480Z,38.2
2023-02-04T18:10:00.517Z,34.7
2023-02-04T18:15:00.503Z,30.6
2023-02-04T18:20:00.512Z,26.6
2023-02-04T18:25:00.584Z,4.0
2023-02-04T18:30:00.666Z,12.4
2023-02-04T18:35:00.474Z,25.2
2023-02-04T18:40:00.604Z,33.4
2023-02-04T18:45:00.494Z,34.2
2023-02-04T18:50:00.548Z,39.5
2023-02-04T18:55:00.496Z,36.8
2023-02-04T19:00:00.560Z,36.0
2023-02-04T19:05:15.445Z,47.6
2023-02-04T19:10:00.690Z,37.5
2023-02-04T19:15:00.465Z,30.4
2023-02-04T19:20:00.627Z,33.5
2023-02-04T19:25:00.466Z,34.0
2023-02-04T19:30:00.559Z,38.4
2023-02-04T19:35:00.623Z,45.1
2023-02-04T19:40:00.539Z,36.6
2023-02-04T19:45:00.587Z,35.2
2023-02-04T19:50:00.595Z,33.2
2023-02-04T19:55:00.500Z,37.9
2023-02-04T20:00:00.513Z,35.0
2023-02-04T20:05:00.549Z,32.9
2023-02-04T20:10:00.488Z,38.5
2023-02-04T20:15:00.496Z,35.8
2023-02-04T20:20:00.540Z,39.1
2023-02-04T20:25:00.545Z,37.1
2023-02-04T20:30:00.514Z,44.7
2023-02-04T20:35:00.469Z,30.4
2023-02-04T20:40:00.560Z,6.2
2023-02-04T20:45:00.586Z,0.7
2023-02-04T20:50:00.503Z,358.0
2023-02-04T20:55:00.507Z,360.0
2023-02-04T21:00:00.562Z,0.0
2023-02-04T21:05:00.486Z,0.0
2023-02-04T21:10:00.579Z,0.0
2023-02-04T21:15:00.506Z,0.0
2023-02-04T21:20:00.585Z,354.3
2023-02-04T21:25:00.683Z,337.6
2023-02-04T21:30:00.702Z,334.8
2023-02-04T21:35:00.476Z,293.2
2023-02-04T21:40:00.554Z,292.5
2023-02-04T21:45:00.466Z,292.5
2023-02-04T21:50:00.536Z,292.5
2023-02-04T21:55:00.499Z,292.5
2023-02-04T22:00:03.558Z,307.8
2023-02-04T22:05:00.489Z,315.0
2023-02-04T22:10:00.594Z,315.0
2023-02-04T22:15:00.793Z,315.0
2023-02-04T22:20:00.557Z,60.8
2023-02-04T22:25:00.567Z,67.5
2023-02-04T22:30:00.592Z,67.5
2023-02-04T22:35:00.503Z,67.5
2023-02-04T22:40:00.569Z,67.5
2023-02-04T22:45:00.496Z,67.5
2023-02-04T22:50:00.520Z,67.5
2023-02-04T22:55:00.505Z,67.5
2023-02-04T23:00:00.584Z,67.5
2023-02-04T23:05:00.545Z,101.0
2023-02-04T23:10:00.520Z,105.6
2023-02-04T23:15:00.483Z,132.9
2023-02-04T23:20:00.569Z,114.3
2023-02-04T23:25:00.502Z,69.7
2023-02-04T23:30:00.527Z,67.5
2023-02-04T23:35:00.499Z,67.5
2023-02-04T23:40:00.535Z,67.5
2023-02-04T23:45:00.569Z,67.5
2023-02-04T23:50:00.546Z,67.5
2023-02-04T23:55:00.478Z,67.5
